sensor_id;sensor_type;location;lat;lon;timestamp;P1;durP1;ratioP1;P2;durP2;ratioP2
58017;SDS011;43810;50.860;19.226;2022-09-01T00:01:13;8.98;;;6.40;;
58017;SDS011;43810;50.860;19.226;2022-09-01T00:03:42;8.35;;;5.95;;
58017;SDS011;43810;50.860;19.226;2022-09-01T00:06:11;11.55;;;6.95;;
58017;SDS011;43810;50.860;19.226;2022-09-01T00:08:37;8.05;;;6.00;;
58017;SDS011;43810;50.860;19.226;2022-09-01T00:11:02;8.80;;;6.28;;
58017;SDS011;43810;50.860;19.226;2022-09-01T00:13:28;9.55;;;6.68;;
58017;SDS011;43810;50.860;19.226;2022-09-01T00:15:57;7.70;;;6.32;;
58017;SDS011;43810;50.860;19.226;2022-09-01T00:18:23;7.90;;;5.95;;
58017;SDS011;43810;50.860;19.226;2022-09-01T00:20:49;10.95;;;6.68;;
58017;SDS011;43810;50.860;19.226;2022-09-01T00:23:14;8.35;;;6.40;;
58017;SDS011;43810;50.860;19.226;2022-09-01T00:25:40;10.90;;;6.30;;
58017;SDS011;43810;50.860;19.226;2022-09-01T00:28:05;7.78;;;5.95;;
58017;SDS011;43810;50.860;19.226;2022-09-01T00:30:31;9.15;;;5.65;;
58017;SDS011;43810;50.860;19.226;2022-09-01T00:32:56;7.28;;;5.45;;
58017;SDS011;43810;50.860;19.226;2022-09-01T00:35:22;6.75;;;5.25;;
58017;SDS011;43810;50.860;19.226;2022-09-01T00:37:48;8.80;;;5.70;;
58017;SDS011;43810;50.860;19.226;2022-09-01T00:40:14;7.35;;;5.57;;
58017;SDS011;43810;50.860;19.226;2022-09-01T00:42:40;7.35;;;5.78;;
58017;SDS011;43810;50.860;19.226;2022-09-01T00:45:08;7.85;;;5.30;;
58017;SDS011;43810;50.860;19.226;2022-09-01T00:47:34;7.53;;;5.47;;
58017;SDS011;43810;50.860;19.226;2022-09-01T00:50:00;9.02;;;6.80;;
58017;SDS011;43810;50.860;19.226;2022-09-01T00:52:28;6.82;;;5.53;;
58017;SDS011;43810;50.860;19.226;2022-09-01T00:54:55;10.05;;;5.68;;
58017;SDS011;43810;50.860;19.226;2022-09-01T00:57:23;7.90;;;5.50;;
58017;SDS011;43810;50.860;19.226;2022-09-01T00:59:50;6.80;;;5.30;;
58017;SDS011;43810;50.860;19.226;2022-09-01T01:02:17;6.15;;;4.95;;
58017;SDS011;43810;50.860;19.226;2022-09-01T01:04:43;5.78;;;5.00;;
58017;SDS011;43810;50.860;19.226;2022-09-01T01:07:08;8.15;;;5.22;;
58017;SDS011;43810;50.860;19.226;2022-09-01T01:09:35;8.50;;;6.00;;
58017;SDS011;43810;50.860;19.226;2022-09-01T01:12:03;7.47;;;5.15;;
58017;SDS011;43810;50.860;19.226;2022-09-01T01:14:29;6.03;;;5.10;;
58017;SDS011;43810;50.860;19.226;2022-09-01T01:16:56;9.32;;;5.00;;
58017;SDS011;43810;50.860;19.226;2022-09-01T01:22:07;9.30;;;5.28;;
58017;SDS011;43810;50.860;19.226;2022-09-01T01:24:53;7.78;;;5.10;;
58017;SDS011;43810;50.860;19.226;2022-09-01T01:27:20;7.25;;;4.57;;
58017;SDS011;43810;50.860;19.226;2022-09-01T01:29:46;7.97;;;5.20;;
58017;SDS011;43810;50.860;19.226;2022-09-01T01:32:12;6.43;;;5.13;;
58017;SDS011;43810;50.860;19.226;2022-09-01T01:34:38;6.35;;;4.80;;
58017;SDS011;43810;50.860;19.226;2022-09-01T01:37:10;5.40;;;4.65;;
58017;SDS011;43810;50.860;19.226;2022-09-01T01:39:38;6.95;;;5.43;;
58017;SDS011;43810;50.860;19.226;2022-09-01T01:42:05;5.70;;;4.88;;
58017;SDS011;43810;50.860;19.226;2022-09-01T01:44:33;6.72;;;4.80;;
58017;SDS011;43810;50.860;19.226;2022-09-01T01:47:00;6.45;;;4.60;;
58017;SDS011;43810;50.860;19.226;2022-09-01T01:49:29;6.38;;;4.78;;
58017;SDS011;43810;50.860;19.226;2022-09-01T01:51:55;6.95;;;4.22;;
58017;SDS011;43810;50.860;19.226;2022-09-01T01:54:22;6.35;;;4.38;;
58017;SDS011;43810;50.860;19.226;2022-09-01T01:56:48;8.43;;;5.13;;
58017;SDS011;43810;50.860;19.226;2022-09-01T01:59:14;5.88;;;4.88;;
58017;SDS011;43810;50.860;19.226;2022-09-01T02:01:41;6.25;;;4.72;;
58017;SDS011;43810;50.860;19.226;2022-09-01T02:04:07;7.00;;;5.50;;
58017;SDS011;43810;50.860;19.226;2022-09-01T02:06:34;5.97;;;4.97;;
58017;SDS011;43810;50.860;19.226;2022-09-01T02:08:59;5.82;;;4.53;;
58017;SDS011;43810;50.860;19.226;2022-09-01T02:11:28;6.43;;;5.03;;
58017;SDS011;43810;50.860;19.226;2022-09-01T02:13:54;7.05;;;5.18;;
58017;SDS011;43810;50.860;19.226;2022-09-01T02:16:22;7.30;;;5.05;;
58017;SDS011;43810;50.860;19.226;2022-09-01T02:18:48;9.43;;;5.70;;
58017;SDS011;43810;50.860;19.226;2022-09-01T02:21:15;10.32;;;5.68;;
58017;SDS011;43810;50.860;19.226;2022-09-01T02:23:44;7.78;;;5.53;;
58017;SDS011;43810;50.860;19.226;2022-09-01T02:26:10;8.73;;;5.45;;
58017;SDS011;43810;50.860;19.226;2022-09-01T02:28:37;7.82;;;5.25;;
58017;SDS011;43810;50.860;19.226;2022-09-01T02:31:07;10.25;;;5.90;;
58017;SDS011;43810;50.860;19.226;2022-09-01T02:33:33;12.45;;;6.57;;
58017;SDS011;43810;50.860;19.226;2022-09-01T02:36:00;39.42;;;14.52;;
58017;SDS011;43810;50.860;19.226;2022-09-01T02:38:27;20.65;;;9.30;;
58017;SDS011;43810;50.860;19.226;2022-09-01T02:40:57;25.48;;;10.93;;
58017;SDS011;43810;50.860;19.226;2022-09-01T02:43:23;30.15;;;11.52;;
58017;SDS011;43810;50.860;19.226;2022-09-01T02:45:53;24.08;;;10.73;;
58017;SDS011;43810;50.860;19.226;2022-09-01T02:48:37;15.95;;;7.03;;
58017;SDS011;43810;50.860;19.226;2022-09-01T02:51:05;10.88;;;6.10;;
58017;SDS011;43810;50.860;19.226;2022-09-01T02:53:31;10.70;;;6.13;;
58017;SDS011;43810;50.860;19.226;2022-09-01T02:55:59;14.80;;;7.90;;
58017;SDS011;43810;50.860;19.226;2022-09-01T02:58:27;25.10;;;10.55;;
58017;SDS011;43810;50.860;19.226;2022-09-01T03:00:56;27.75;;;10.85;;
58017;SDS011;43810;50.860;19.226;2022-09-01T03:03:21;65.60;;;24.38;;
58017;SDS011;43810;50.860;19.226;2022-09-01T03:05:49;84.97;;;26.85;;
58017;SDS011;43810;50.860;19.226;2022-09-01T03:08:21;92.30;;;31.80;;
58017;SDS011;43810;50.860;19.226;2022-09-01T03:10:47;87.63;;;30.23;;
58017;SDS011;43810;50.860;19.226;2022-09-01T03:13:14;89.55;;;30.10;;
58017;SDS011;43810;50.860;19.226;2022-09-01T03:15:40;83.70;;;28.55;;
58017;SDS011;43810;50.860;19.226;2022-09-01T03:18:06;79.75;;;28.17;;
58017;SDS011;43810;50.860;19.226;2022-09-01T03:20:33;68.40;;;25.13;;
58017;SDS011;43810;50.860;19.226;2022-09-01T03:22:59;69.63;;;23.10;;
58017;SDS011;43810;50.860;19.226;2022-09-01T03:25:25;57.25;;;21.33;;
58017;SDS011;43810;50.860;19.226;2022-09-01T03:27:57;53.08;;;19.60;;
58017;SDS011;43810;50.860;19.226;2022-09-01T03:30:28;45.25;;;18.10;;
58017;SDS011;43810;50.860;19.226;2022-09-01T03:32:55;38.72;;;15.43;;
58017;SDS011;43810;50.860;19.226;2022-09-01T03:35:21;37.33;;;15.63;;
58017;SDS011;43810;50.860;19.226;2022-09-01T03:37:47;30.25;;;13.82;;
58017;SDS011;43810;50.860;19.226;2022-09-01T03:40:13;29.60;;;12.73;;
58017;SDS011;43810;50.860;19.226;2022-09-01T03:42:40;31.60;;;13.45;;
58017;SDS011;43810;50.860;19.226;2022-09-01T03:45:06;23.83;;;10.18;;
58017;SDS011;43810;50.860;19.226;2022-09-01T03:47:38;26.75;;;10.68;;
58017;SDS011;43810;50.860;19.226;2022-09-01T03:50:11;21.65;;;9.95;;
58017;SDS011;43810;50.860;19.226;2022-09-01T03:52:48;21.45;;;9.45;;
58017;SDS011;43810;50.860;19.226;2022-09-01T03:55:17;20.55;;;9.48;;
58017;SDS011;43810;50.860;19.226;2022-09-01T03:57:54;73.25;;;11.90;;
58017;SDS011;43810;50.860;19.226;2022-09-01T04:00:21;31.00;;;9.70;;
58017;SDS011;43810;50.860;19.226;2022-09-01T04:02:48;17.55;;;7.32;;
58017;SDS011;43810;50.860;19.226;2022-09-01T04:05:15;25.05;;;9.20;;
58017;SDS011;43810;50.860;19.226;2022-09-01T04:07:40;16.67;;;7.43;;
58017;SDS011;43810;50.860;19.226;2022-09-01T04:10:06;12.52;;;7.18;;
58017;SDS011;43810;50.860;19.226;2022-09-01T04:12:36;15.25;;;6.60;;
58017;SDS011;43810;50.860;19.226;2022-09-01T04:15:02;15.00;;;7.10;;
58017;SDS011;43810;50.860;19.226;2022-09-01T04:17:27;13.70;;;7.15;;
58017;SDS011;43810;50.860;19.226;2022-09-01T04:20:12;12.60;;;6.18;;
58017;SDS011;43810;50.860;19.226;2022-09-01T04:22:39;11.15;;;5.90;;
58017;SDS011;43810;50.860;19.226;2022-09-01T04:25:05;12.57;;;6.10;;
58017;SDS011;43810;50.860;19.226;2022-09-01T04:27:31;10.77;;;6.25;;
58017;SDS011;43810;50.860;19.226;2022-09-01T04:29:56;23.50;;;8.55;;
58017;SDS011;43810;50.860;19.226;2022-09-01T04:32:21;16.95;;;6.63;;
58017;SDS011;43810;50.860;19.226;2022-09-01T04:34:48;9.52;;;6.38;;
58017;SDS011;43810;50.860;19.226;2022-09-01T04:37:18;13.50;;;6.30;;
58017;SDS011;43810;50.860;19.226;2022-09-01T04:39:51;10.00;;;5.43;;
58017;SDS011;43810;50.860;19.226;2022-09-01T04:42:17;10.65;;;6.20;;
58017;SDS011;43810;50.860;19.226;2022-09-01T04:44:45;10.07;;;5.57;;
58017;SDS011;43810;50.860;19.226;2022-09-01T04:47:12;10.60;;;6.47;;
58017;SDS011;43810;50.860;19.226;2022-09-01T04:49:39;15.02;;;6.88;;
58017;SDS011;43810;50.860;19.226;2022-09-01T04:52:05;9.70;;;6.97;;
58017;SDS011;43810;50.860;19.226;2022-09-01T04:54:30;11.18;;;6.47;;
58017;SDS011;43810;50.860;19.226;2022-09-01T04:57:00;8.88;;;6.20;;
58017;SDS011;43810;50.860;19.226;2022-09-01T04:59:25;14.77;;;7.82;;
58017;SDS011;43810;50.860;19.226;2022-09-01T05:01:52;17.27;;;8.00;;
58017;SDS011;43810;50.860;19.226;2022-09-01T05:04:23;17.98;;;7.95;;
58017;SDS011;43810;50.860;19.226;2022-09-01T05:06:52;21.10;;;9.38;;
58017;SDS011;43810;50.860;19.226;2022-09-01T05:09:29;19.17;;;9.23;;
58017;SDS011;43810;50.860;19.226;2022-09-01T05:11:55;12.10;;;6.78;;
58017;SDS011;43810;50.860;19.226;2022-09-01T05:14:22;12.73;;;6.68;;
58017;SDS011;43810;50.860;19.226;2022-09-01T05:16:48;13.57;;;6.40;;
58017;SDS011;43810;50.860;19.226;2022-09-01T05:19:15;11.95;;;5.85;;
58017;SDS011;43810;50.860;19.226;2022-09-01T05:21:42;10.38;;;5.38;;
58017;SDS011;43810;50.860;19.226;2022-09-01T05:24:11;8.82;;;5.40;;
58017;SDS011;43810;50.860;19.226;2022-09-01T05:26:36;10.10;;;5.07;;
58017;SDS011;43810;50.860;19.226;2022-09-01T05:29:05;8.23;;;4.88;;
58017;SDS011;43810;50.860;19.226;2022-09-01T05:31:41;9.93;;;4.90;;
58017;SDS011;43810;50.860;19.226;2022-09-01T05:34:06;7.35;;;4.53;;
58017;SDS011;43810;50.860;19.226;2022-09-01T05:36:34;9.20;;;5.80;;
58017;SDS011;43810;50.860;19.226;2022-09-01T05:39:01;9.57;;;5.45;;
58017;SDS011;43810;50.860;19.226;2022-09-01T05:41:27;9.55;;;4.75;;
58017;SDS011;43810;50.860;19.226;2022-09-01T05:43:52;9.35;;;4.95;;
58017;SDS011;43810;50.860;19.226;2022-09-01T05:46:19;12.30;;;4.55;;
58017;SDS011;43810;50.860;19.226;2022-09-01T05:48:45;6.93;;;3.97;;
58017;SDS011;43810;50.860;19.226;2022-09-01T05:51:14;8.10;;;3.45;;
58017;SDS011;43810;50.860;19.226;2022-09-01T05:53:42;8.85;;;3.63;;
58017;SDS011;43810;50.860;19.226;2022-09-01T05:56:09;17.70;;;3.78;;
58017;SDS011;43810;50.860;19.226;2022-09-01T05:58:37;6.53;;;2.85;;
58017;SDS011;43810;50.860;19.226;2022-09-01T06:01:04;22.00;;;3.63;;
58017;SDS011;43810;50.860;19.226;2022-09-01T06:03:30;5.05;;;2.45;;
58017;SDS011;43810;50.860;19.226;2022-09-01T06:06:01;3.85;;;2.13;;
58017;SDS011;43810;50.860;19.226;2022-09-01T06:08:27;3.75;;;1.92;;
58017;SDS011;43810;50.860;19.226;2022-09-01T06:10:53;3.53;;;1.80;;
58017;SDS011;43810;50.860;19.226;2022-09-01T06:13:19;4.60;;;1.95;;
58017;SDS011;43810;50.860;19.226;2022-09-01T06:15:46;2.58;;;1.90;;
58017;SDS011;43810;50.860;19.226;2022-09-01T06:18:12;2.25;;;1.90;;
58017;SDS011;43810;50.860;19.226;2022-09-01T06:20:41;3.95;;;2.45;;
58017;SDS011;43810;50.860;19.226;2022-09-01T06:23:08;4.03;;;1.77;;
58017;SDS011;43810;50.860;19.226;2022-09-01T06:25:37;3.47;;;1.55;;
58017;SDS011;43810;50.860;19.226;2022-09-01T06:28:04;2.45;;;1.55;;
58017;SDS011;43810;50.860;19.226;2022-09-01T06:30:30;5.13;;;1.90;;
58017;SDS011;43810;50.860;19.226;2022-09-01T06:33:01;2.17;;;1.38;;
58017;SDS011;43810;50.860;19.226;2022-09-01T06:35:26;2.90;;;1.35;;
58017;SDS011;43810;50.860;19.226;2022-09-01T06:37:54;4.88;;;1.52;;
58017;SDS011;43810;50.860;19.226;2022-09-01T06:40:20;4.88;;;1.85;;
58017;SDS011;43810;50.860;19.226;2022-09-01T06:42:47;3.15;;;1.42;;
58017;SDS011;43810;50.860;19.226;2022-09-01T06:45:13;1.50;;;1.00;;
58017;SDS011;43810;50.860;19.226;2022-09-01T06:47:40;3.30;;;1.40;;
58017;SDS011;43810;50.860;19.226;2022-09-01T06:50:07;1.42;;;1.13;;
58017;SDS011;43810;50.860;19.226;2022-09-01T06:52:33;3.25;;;1.27;;
58017;SDS011;43810;50.860;19.226;2022-09-01T06:54:59;2.35;;;1.30;;
58017;SDS011;43810;50.860;19.226;2022-09-01T06:57:24;14.98;;;2.00;;
58017;SDS011;43810;50.860;19.226;2022-09-01T06:59:52;1.80;;;1.20;;
58017;SDS011;43810;50.860;19.226;2022-09-01T07:02:18;2.22;;;1.65;;
58017;SDS011;43810;50.860;19.226;2022-09-01T07:04:44;3.78;;;1.73;;
58017;SDS011;43810;50.860;19.226;2022-09-01T07:07:10;2.30;;;1.35;;
58017;SDS011;43810;50.860;19.226;2022-09-01T07:09:37;2.28;;;1.42;;
58017;SDS011;43810;50.860;19.226;2022-09-01T07:12:03;5.30;;;1.92;;
58017;SDS011;43810;50.860;19.226;2022-09-01T07:14:29;2.03;;;1.15;;
58017;SDS011;43810;50.860;19.226;2022-09-01T07:16:54;3.72;;;0.82;;
58017;SDS011;43810;50.860;19.226;2022-09-01T07:19:21;2.60;;;0.90;;
58017;SDS011;43810;50.860;19.226;2022-09-01T07:21:47;1.55;;;0.90;;
58017;SDS011;43810;50.860;19.226;2022-09-01T07:24:12;4.70;;;0.90;;
58017;SDS011;43810;50.860;19.226;2022-09-01T07:26:40;1.20;;;0.95;;
58017;SDS011;43810;50.860;19.226;2022-09-01T07:29:07;1.55;;;0.65;;
58017;SDS011;43810;50.860;19.226;2022-09-01T07:31:38;2.03;;;0.70;;
58017;SDS011;43810;50.860;19.226;2022-09-01T07:34:06;0.85;;;0.65;;
58017;SDS011;43810;50.860;19.226;2022-09-01T07:36:37;2.78;;;1.80;;
58017;SDS011;43810;50.860;19.226;2022-09-01T07:39:03;1.65;;;0.50;;
58017;SDS011;43810;50.860;19.226;2022-09-01T07:41:29;1.88;;;0.82;;
58017;SDS011;43810;50.860;19.226;2022-09-01T07:43:56;2.42;;;0.73;;
58017;SDS011;43810;50.860;19.226;2022-09-01T07:46:25;1.15;;;0.68;;
58017;SDS011;43810;50.860;19.226;2022-09-01T07:48:54;2.65;;;0.93;;
58017;SDS011;43810;50.860;19.226;2022-09-01T07:51:21;1.10;;;0.70;;
58017;SDS011;43810;50.860;19.226;2022-09-01T07:53:47;1.23;;;0.68;;
58017;SDS011;43810;50.860;19.226;2022-09-01T07:56:13;5.00;;;0.90;;
58017;SDS011;43810;50.860;19.226;2022-09-01T07:58:39;1.90;;;0.60;;
58017;SDS011;43810;50.860;19.226;2022-09-01T08:01:16;1.23;;;0.60;;
58017;SDS011;43810;50.860;19.226;2022-09-01T08:03:47;1.00;;;0.70;;
58017;SDS011;43810;50.860;19.226;2022-09-01T08:06:14;0.98;;;0.45;;
58017;SDS011;43810;50.860;19.226;2022-09-01T08:08:43;2.53;;;0.63;;
58017;SDS011;43810;50.860;19.226;2022-09-01T08:11:09;1.98;;;0.70;;
58017;SDS011;43810;50.860;19.226;2022-09-01T08:13:39;1.20;;;0.60;;
58017;SDS011;43810;50.860;19.226;2022-09-01T08:16:06;11.73;;;1.85;;
58017;SDS011;43810;50.860;19.226;2022-09-01T08:18:32;2.15;;;0.50;;
58017;SDS011;43810;50.860;19.226;2022-09-01T08:20:57;2.15;;;0.60;;
58017;SDS011;43810;50.860;19.226;2022-09-01T08:23:23;0.65;;;0.60;;
58017;SDS011;43810;50.860;19.226;2022-09-01T08:25:51;4.07;;;1.05;;
58017;SDS011;43810;50.860;19.226;2022-09-01T08:28:17;2.22;;;1.08;;
58017;SDS011;43810;50.860;19.226;2022-09-01T08:30:42;1.10;;;0.70;;
58017;SDS011;43810;50.860;19.226;2022-09-01T08:33:08;1.35;;;0.80;;
58017;SDS011;43810;50.860;19.226;2022-09-01T08:35:38;8.57;;;1.15;;
58017;SDS011;43810;50.860;19.226;2022-09-01T08:38:05;0.60;;;0.30;;
58017;SDS011;43810;50.860;19.226;2022-09-01T08:40:30;1.75;;;0.32;;
58017;SDS011;43810;50.860;19.226;2022-09-01T08:43:18;15.18;;;1.63;;
58017;SDS011;43810;50.860;19.226;2022-09-01T08:45:49;1.00;;;0.40;;
58017;SDS011;43810;50.860;19.226;2022-09-01T08:50:43;0.38;;;0.15;;
58017;SDS011;43810;50.860;19.226;2022-09-01T08:55:55;3.17;;;0.35;;
58017;SDS011;43810;50.860;19.226;2022-09-01T08:58:20;1.15;;;0.57;;
58017;SDS011;43810;50.860;19.226;2022-09-01T09:00:48;0.68;;;0.30;;
58017;SDS011;43810;50.860;19.226;2022-09-01T09:03:31;0.73;;;0.40;;
58017;SDS011;43810;50.860;19.226;2022-09-01T09:16:59;1.00;;;0.50;;
58017;SDS011;43810;50.860;19.226;2022-09-01T09:19:20;1.75;;;0.50;;
58017;SDS011;43810;50.860;19.226;2022-09-01T09:21:46;0.65;;;0.40;;
58017;SDS011;43810;50.860;19.226;2022-09-01T09:27:28;0.40;;;0.40;;
58017;SDS011;43810;50.860;19.226;2022-09-01T09:29:55;1.65;;;0.50;;
58017;SDS011;43810;50.860;19.226;2022-09-01T09:32:22;0.85;;;0.30;;
58017;SDS011;43810;50.860;19.226;2022-09-01T09:34:48;0.32;;;0.32;;
58017;SDS011;43810;50.860;19.226;2022-09-01T09:37:24;2.95;;;0.38;;
58017;SDS011;43810;50.860;19.226;2022-09-01T09:42:29;1.05;;;0.30;;
58017;SDS011;43810;50.860;19.226;2022-09-01T09:44:54;8.65;;;0.52;;
58017;SDS011;43810;50.860;19.226;2022-09-01T09:47:33;0.40;;;0.20;;
58017;SDS011;43810;50.860;19.226;2022-09-01T09:52:44;0.93;;;0.38;;
58017;SDS011;43810;50.860;19.226;2022-09-01T09:57:49;0.60;;;0.57;;
58017;SDS011;43810;50.860;19.226;2022-09-01T10:00:18;1.35;;;0.32;;
58017;SDS011;43810;50.860;19.226;2022-09-01T10:02:44;0.47;;;0.20;;
58017;SDS011;43810;50.860;19.226;2022-09-01T10:07:48;2.13;;;0.40;;
58017;SDS011;43810;50.860;19.226;2022-09-01T10:12:52;0.60;;;0.32;;
58017;SDS011;43810;50.860;19.226;2022-09-01T10:15:19;0.40;;;0.20;;
58017;SDS011;43810;50.860;19.226;2022-09-01T10:17:45;0.22;;;0.22;;
58017;SDS011;43810;50.860;19.226;2022-09-01T10:20:12;1.02;;;0.80;;
58017;SDS011;43810;50.860;19.226;2022-09-01T10:22:41;0.40;;;0.20;;
58017;SDS011;43810;50.860;19.226;2022-09-01T10:25:07;2.15;;;0.20;;
58017;SDS011;43810;50.860;19.226;2022-09-01T10:27:36;0.68;;;0.20;;
58017;SDS011;43810;50.860;19.226;2022-09-01T10:32:39;0.82;;;0.20;;
58017;SDS011;43810;50.860;19.226;2022-09-01T10:35:08;0.17;;;0.10;;
58017;SDS011;43810;50.860;19.226;2022-09-01T10:37:35;3.90;;;0.30;;
58017;SDS011;43810;50.860;19.226;2022-09-01T10:42:35;0.20;;;0.20;;
58017;SDS011;43810;50.860;19.226;2022-09-01T10:45:01;3.50;;;0.20;;
58017;SDS011;43810;50.860;19.226;2022-09-01T10:47:28;0.25;;;0.25;;
58017;SDS011;43810;50.860;19.226;2022-09-01T10:49:55;1.65;;;0.30;;
58017;SDS011;43810;50.860;19.226;2022-09-01T10:55:33;0.30;;;0.30;;
58017;SDS011;43810;50.860;19.226;2022-09-01T10:58:02;5.15;;;0.43;;
58017;SDS011;43810;50.860;19.226;2022-09-01T11:06:10;0.45;;;0.30;;
58017;SDS011;43810;50.860;19.226;2022-09-01T11:16:21;1.17;;;0.32;;
58017;SDS011;43810;50.860;19.226;2022-09-01T11:18:42;0.85;;;0.17;;
58017;SDS011;43810;50.860;19.226;2022-09-01T11:21:15;4.97;;;0.40;;
58017;SDS011;43810;50.860;19.226;2022-09-01T11:23:42;0.35;;;0.30;;
58017;SDS011;43810;50.860;19.226;2022-09-01T11:31:21;0.30;;;0.30;;
58017;SDS011;43810;50.860;19.226;2022-09-01T11:41:33;3.53;;;0.70;;
58017;SDS011;43810;50.860;19.226;2022-09-01T11:44:00;0.25;;;0.20;;
58017;SDS011;43810;50.860;19.226;2022-09-01T11:46:28;0.32;;;0.30;;
58017;SDS011;43810;50.860;19.226;2022-09-01T11:48:55;2.75;;;0.40;;
58017;SDS011;43810;50.860;19.226;2022-09-01T11:51:21;0.75;;;0.20;;
58017;SDS011;43810;50.860;19.226;2022-09-01T11:53:47;1.63;;;0.30;;
58017;SDS011;43810;50.860;19.226;2022-09-01T11:56:15;1.00;;;0.30;;
58017;SDS011;43810;50.860;19.226;2022-09-01T11:58:42;2.22;;;0.73;;
58017;SDS011;43810;50.860;19.226;2022-09-01T12:03:36;2.00;;;0.35;;
58017;SDS011;43810;50.860;19.226;2022-09-01T12:06:03;2.88;;;0.93;;
58017;SDS011;43810;50.860;19.226;2022-09-01T12:08:33;2.38;;;0.60;;
58017;SDS011;43810;50.860;19.226;2022-09-01T12:11:03;8.32;;;1.10;;
58017;SDS011;43810;50.860;19.226;2022-09-01T12:13:29;0.80;;;0.43;;
58017;SDS011;43810;50.860;19.226;2022-09-01T12:15:56;0.30;;;0.10;;
58017;SDS011;43810;50.860;19.226;2022-09-01T12:18:26;0.30;;;0.22;;
58017;SDS011;43810;50.860;19.226;2022-09-01T12:20:53;0.95;;;0.30;;
58017;SDS011;43810;50.860;19.226;2022-09-01T12:23:27;1.17;;;0.20;;
58017;SDS011;43810;50.860;19.226;2022-09-01T12:25:53;2.80;;;0.33;;
58017;SDS011;43810;50.860;19.226;2022-09-01T12:28:21;2.70;;;0.40;;
58017;SDS011;43810;50.860;19.226;2022-09-01T12:30:48;0.75;;;0.15;;
58017;SDS011;43810;50.860;19.226;2022-09-01T12:33:14;0.50;;;0.10;;
58017;SDS011;43810;50.860;19.226;2022-09-01T12:35:41;0.30;;;0.20;;
58017;SDS011;43810;50.860;19.226;2022-09-01T12:40:42;1.20;;;0.40;;
58017;SDS011;43810;50.860;19.226;2022-09-01T12:43:09;1.20;;;0.40;;
58017;SDS011;43810;50.860;19.226;2022-09-01T12:45:41;1.55;;;0.30;;
58017;SDS011;43810;50.860;19.226;2022-09-01T12:48:22;0.15;;;0.15;;
58017;SDS011;43810;50.860;19.226;2022-09-01T12:50:48;2.50;;;0.40;;
58017;SDS011;43810;50.860;19.226;2022-09-01T12:53:16;11.32;;;1.25;;
58017;SDS011;43810;50.860;19.226;2022-09-01T12:55:51;1.83;;;0.50;;
58017;SDS011;43810;50.860;19.226;2022-09-01T12:58:22;0.68;;;0.40;;
58017;SDS011;43810;50.860;19.226;2022-09-01T13:03:25;3.40;;;0.30;;
58017;SDS011;43810;50.860;19.226;2022-09-01T13:05:52;2.72;;;0.40;;
58017;SDS011;43810;50.860;19.226;2022-09-01T13:08:20;1.10;;;0.17;;
58017;SDS011;43810;50.860;19.226;2022-09-01T13:10:48;2.13;;;0.30;;
58017;SDS011;43810;50.860;19.226;2022-09-01T13:13:14;0.57;;;0.30;;
58017;SDS011;43810;50.860;19.226;2022-09-01T13:15:41;1.65;;;0.55;;
58017;SDS011;43810;50.860;19.226;2022-09-01T13:18:07;0.45;;;0.35;;
58017;SDS011;43810;50.860;19.226;2022-09-01T13:20:33;1.23;;;0.40;;
58017;SDS011;43810;50.860;19.226;2022-09-01T13:22:59;6.22;;;1.15;;
58017;SDS011;43810;50.860;19.226;2022-09-01T13:25:24;1.23;;;0.30;;
58017;SDS011;43810;50.860;19.226;2022-09-01T13:27:50;1.33;;;0.28;;
58017;SDS011;43810;50.860;19.226;2022-09-01T13:30:19;3.47;;;0.70;;
58017;SDS011;43810;50.860;19.226;2022-09-01T13:32:46;3.20;;;0.30;;
58017;SDS011;43810;50.860;19.226;2022-09-01T13:35:13;25.88;;;2.03;;
58017;SDS011;43810;50.860;19.226;2022-09-01T13:37:39;3.13;;;0.30;;
58017;SDS011;43810;50.860;19.226;2022-09-01T13:40:06;0.90;;;0.60;;
58017;SDS011;43810;50.860;19.226;2022-09-01T13:42:34;3.17;;;0.95;;
58017;SDS011;43810;50.860;19.226;2022-09-01T13:45:00;0.70;;;0.40;;
58017;SDS011;43810;50.860;19.226;2022-09-01T13:47:26;1.48;;;0.68;;
58017;SDS011;43810;50.860;19.226;2022-09-01T13:49:52;1.08;;;0.40;;
58017;SDS011;43810;50.860;19.226;2022-09-01T13:52:17;0.40;;;0.20;;
58017;SDS011;43810;50.860;19.226;2022-09-01T13:54:43;1.52;;;0.43;;
58017;SDS011;43810;50.860;19.226;2022-09-01T13:57:09;0.20;;;0.20;;
58017;SDS011;43810;50.860;19.226;2022-09-01T13:59:36;3.70;;;1.35;;
58017;SDS011;43810;50.860;19.226;2022-09-01T14:02:02;2.17;;;0.80;;
58017;SDS011;43810;50.860;19.226;2022-09-01T14:04:28;1.65;;;0.50;;
58017;SDS011;43810;50.860;19.226;2022-09-01T14:06:53;2.22;;;0.30;;
58017;SDS011;43810;50.860;19.226;2022-09-01T14:09:19;0.43;;;0.40;;
58017;SDS011;43810;50.860;19.226;2022-09-01T14:11:45;8.02;;;0.57;;
58017;SDS011;43810;50.860;19.226;2022-09-01T14:14:10;0.82;;;0.40;;
58017;SDS011;43810;50.860;19.226;2022-09-01T14:16:36;1.30;;;0.60;;
58017;SDS011;43810;50.860;19.226;2022-09-01T14:19:02;1.77;;;0.57;;
58017;SDS011;43810;50.860;19.226;2022-09-01T14:21:27;2.25;;;0.70;;
58017;SDS011;43810;50.860;19.226;2022-09-01T14:23:53;6.43;;;0.80;;
58017;SDS011;43810;50.860;19.226;2022-09-01T14:26:18;7.68;;;1.35;;
58017;SDS011;43810;50.860;19.226;2022-09-01T14:28:44;1.10;;;1.00;;
58017;SDS011;43810;50.860;19.226;2022-09-01T14:31:12;3.78;;;0.85;;
58017;SDS011;43810;50.860;19.226;2022-09-01T14:33:38;3.38;;;1.27;;
58017;SDS011;43810;50.860;19.226;2022-09-01T14:36:05;3.10;;;0.40;;
58017;SDS011;43810;50.860;19.226;2022-09-01T14:38:31;0.45;;;0.45;;
58017;SDS011;43810;50.860;19.226;2022-09-01T14:40:56;0.93;;;0.57;;
58017;SDS011;43810;50.860;19.226;2022-09-01T14:43:22;12.32;;;1.40;;
58017;SDS011;43810;50.860;19.226;2022-09-01T14:45:48;2.38;;;0.70;;
58017;SDS011;43810;50.860;19.226;2022-09-01T14:48:14;3.25;;;0.50;;
58017;SDS011;43810;50.860;19.226;2022-09-01T14:50:41;0.70;;;0.50;;
58017;SDS011;43810;50.860;19.226;2022-09-01T14:53:08;6.38;;;0.70;;
58017;SDS011;43810;50.860;19.226;2022-09-01T14:55:34;3.33;;;0.70;;
58017;SDS011;43810;50.860;19.226;2022-09-01T14:57:59;3.13;;;0.60;;
58017;SDS011;43810;50.860;19.226;2022-09-01T15:00:25;13.25;;;0.82;;
58017;SDS011;43810;50.860;19.226;2022-09-01T15:02:51;1.67;;;0.40;;
58017;SDS011;43810;50.860;19.226;2022-09-01T15:05:17;2.38;;;0.75;;
58017;SDS011;43810;50.860;19.226;2022-09-01T15:07:42;3.47;;;0.60;;
58017;SDS011;43810;50.860;19.226;2022-09-01T15:10:09;1.48;;;0.70;;
58017;SDS011;43810;50.860;19.226;2022-09-01T15:12:35;1.58;;;0.40;;
58017;SDS011;43810;50.860;19.226;2022-09-01T15:15:01;1.17;;;0.47;;
58017;SDS011;43810;50.860;19.226;2022-09-01T15:17:27;7.65;;;0.77;;
58017;SDS011;43810;50.860;19.226;2022-09-01T15:19:52;1.75;;;0.60;;
58017;SDS011;43810;50.860;19.226;2022-09-01T15:22:18;9.40;;;1.30;;
58017;SDS011;43810;50.860;19.226;2022-09-01T15:24:44;0.90;;;0.40;;
58017;SDS011;43810;50.860;19.226;2022-09-01T15:27:09;3.17;;;0.60;;
58017;SDS011;43810;50.860;19.226;2022-09-01T15:29:36;3.67;;;1.50;;
58017;SDS011;43810;50.860;19.226;2022-09-01T15:32:13;1.10;;;0.40;;
58017;SDS011;43810;50.860;19.226;2022-09-01T15:34:41;1.17;;;0.50;;
58017;SDS011;43810;50.860;19.226;2022-09-01T15:37:06;3.00;;;0.80;;
58017;SDS011;43810;50.860;19.226;2022-09-01T15:39:33;0.88;;;0.50;;
58017;SDS011;43810;50.860;19.226;2022-09-01T15:41:58;1.20;;;0.50;;
58017;SDS011;43810;50.860;19.226;2022-09-01T15:44:26;2.05;;;1.02;;
58017;SDS011;43810;50.860;19.226;2022-09-01T15:46:51;5.82;;;2.22;;
58017;SDS011;43810;50.860;19.226;2022-09-01T15:49:17;5.90;;;2.50;;